Time;durP1;ratioP1;P1;durP2;ratioP2;P2;SDS_P1;SDS_P2;PMS_P1;PMS_P2;Temp;Humidity;BMP_temperature;BMP_pressure;BME280_temperature;BME280_humidity;BME280_pressure;Samples;Min_cycle;Max_cycle;Signal;HPM_P1;HPM_P2
2021/09/06 00:00:42;;;;;;;9.38;5.47;;;;;;;16.20;53.11;95471.38;5046486;28;20114;-84
2021/09/06 00:03:20;;;;;;;9.20;5.70;;;;;;;16.20;52.94;95481.09;5050027;28;20094;-84
2021/09/06 00:05:46;;;;;;;7.43;6.40;;;;;;;16.19;53.02;95471.63;5062053;28;20033;-87
2021/09/06 00:08:11;;;;;;;15.48;5.70;;;;;;;16.14;52.76;95472.38;5029470;28;20090;-86
2021/09/06 00:10:41;;;;;;;6.28;5.68;;;;;;;16.18;52.59;95483.97;5063875;28;20029;-86
2021/09/06 00:13:08;;;;;;;9.68;6.15;;;;;;;16.18;52.97;95475.28;5046622;28;20037;-86
2021/09/06 00:15:35;;;;;;;6.90;5.63;;;;;;;16.08;52.59;95469.97;5030102;28;20088;-86
2021/09/06 00:18:18;;;;;;;17.70;6.57;;;;;;;16.03;52.87;95478.59;5054034;28;20032;-85
2021/09/06 00:23:39;;;;;;;10.75;5.72;;;;;;;16.04;52.86;95485.41;5072932;23;20057;-85
2021/09/06 00:26:05;;;;;;;17.48;5.75;;;;;;;16.01;53.20;95482.50;4975995;28;20034;-84
2021/09/06 00:28:30;;;;;;;7.97;6.03;;;;;;;15.93;53.18;95483.72;4958894;28;20121;-84
2021/09/06 00:30:56;;;;;;;9.75;6.25;;;;;;;15.92;53.34;95482.16;4958260;28;20042;-85
2021/09/06 00:33:22;;;;;;;7.57;5.68;;;;;;;15.87;53.77;95490.75;4974794;28;20502;-85
2021/09/06 00:35:48;;;;;;;8.05;5.53;;;;;;;15.81;53.96;95485.72;4965364;23;20561;-85
2021/09/06 00:38:16;;;;;;;8.95;5.63;;;;;;;15.86;53.77;95488.41;4998953;28;20038;-85
2021/09/06 00:40:45;;;;;;;12.35;6.50;;;;;;;15.88;54.06;95491.56;4990563;28;20037;-85
2021/09/06 00:43:11;;;;;;;9.93;6.88;;;;;;;15.92;53.82;95503.13;4974418;28;20038;-85
2021/09/06 00:45:37;;;;;;;11.50;5.78;;;;;;;15.89;53.91;95507.03;4993082;28;20481;-84
2021/09/06 00:48:03;;;;;;;9.60;5.80;;;;;;;15.84;54.21;95512.25;4985601;28;20105;-84
2021/09/06 00:50:29;;;;;;;12.50;5.85;;;;;;;15.80;54.55;95521.66;4968679;28;20030;-83
2021/09/06 00:52:58;;;;;;;9.98;5.97;;;;;;;15.73;54.79;95520.25;4993192;28;20065;-84
2021/09/06 00:55:24;;;;;;;7.43;6.13;;;;;;;15.69;54.91;95506.06;4968688;28;20027;-84
2021/09/06 00:57:50;;;;;;;7.70;6.38;;;;;;;15.69;55.10;95503.44;4970303;28;20129;-84
2021/09/06 01:00:16;;;;;;;7.10;6.22;;;;;;;15.67;55.29;95513.38;4968212;28;20033;-84
2021/09/06 01:02:42;;;;;;;11.32;6.85;;;;;;;15.61;55.55;95512.50;4982416;28;20039;-85
2021/09/06 01:05:08;;;;;;;22.38;6.38;;;;;;;15.52;56.09;95514.75;4987089;28;20066;-85
2021/09/06 01:07:33;;;;;;;29.60;7.05;;;;;;;15.46;56.08;95510.50;4990489;28;20047;-84
2021/09/06 01:10:07;;;;;;;7.53;6.68;;;;;;;15.48;56.42;95508.44;4965489;28;20046;-84
2021/09/06 01:12:33;;;;;;;13.85;6.45;;;;;;;15.47;56.86;95525.19;4983493;28;20046;-84
2021/09/06 01:14:59;;;;;;;9.82;7.10;;;;;;;15.45;56.95;95524.63;4991332;28;20050;-84
2021/09/06 01:17:24;;;;;;;20.85;7.75;;;;;;;15.49;57.10;95524.94;4981357;28;20047;-83
2021/09/06 01:19:50;;;;;;;15.40;7.63;;;;;;;15.45;57.60;95524.63;4983851;28;20033;-84
2021/09/06 01:22:18;;;;;;;15.07;7.47;;;;;;;15.43;57.79;95515.41;4974379;28;20039;-85
2021/09/06 01:24:44;;;;;;;12.15;7.38;;;;;;;15.49;57.40;95519.69;4983366;28;20031;-84
2021/09/06 01:27:09;;;;;;;10.52;7.50;;;;;;;15.49;57.49;95523.13;4993331;28;20042;-85
2021/09/06 01:29:34;;;;;;;13.57;7.05;;;;;;;15.54;57.86;95522.38;4954924;28;20133;-85
2021/09/06 01:32:00;;;;;;;13.05;7.05;;;;;;;15.51;58.21;95522.88;4968880;28;20042;-84
2021/09/06 01:34:25;;;;;;;9.77;7.50;;;;;;;15.46;58.26;95521.00;4985999;28;20043;-84
2021/09/06 01:36:51;;;;;;;12.38;7.68;;;;;;;15.51;58.66;95513.19;4987253;28;20578;-84
2021/09/06 01:39:16;;;;;;;8.57;6.68;;;;;;;15.48;58.64;95523.38;4990796;28;20047;-84
2021/09/06 01:41:42;;;;;;;9.65;6.90;;;;;;;15.51;58.59;95512.38;4985109;28;20035;-84
2021/09/06 01:44:07;;;;;;;11.25;7.97;;;;;;;15.46;59.48;95515.75;4995742;28;20037;-84
2021/09/06 01:46:33;;;;;;;11.80;7.50;;;;;;;15.46;60.38;95514.97;4988581;28;20033;-84
2021/09/06 01:48:59;;;;;;;10.68;7.38;;;;;;;15.50;60.27;95516.03;4986247;28;20038;-84
2021/09/06 01:51:25;;;;;;;15.68;8.35;;;;;;;15.52;60.24;95525.25;4986575;28;20047;-84
2021/09/06 01:53:51;;;;;;;9.38;7.25;;;;;;;15.56;60.24;95528.94;4982818;28;20117;-84
2021/09/06 01:56:17;;;;;;;17.27;8.45;;;;;;;15.54;60.53;95517.13;4986790;28;20050;-83
2021/09/06 01:58:42;;;;;;;16.90;7.93;;;;;;;15.58;60.32;95513.75;4995807;28;20042;-84
2021/09/06 02:01:08;;;;;;;9.60;7.15;;;;;;;15.51;60.79;95513.19;5080721;23;20803;-84
2021/09/06 02:03:59;;;;;;;15.60;7.60;;;;;;;15.54;60.87;95512.69;4988098;28;20050;-84
2021/09/06 02:06:25;;;;;;;12.68;8.05;;;;;;;15.51;60.63;95523.66;5019452;23;20070;-83
2021/09/06 02:08:50;;;;;;;9.70;8.13;;;;;;;15.53;60.76;95518.97;4979934;28;20429;-82
2021/09/06 02:11:20;;;;;;;10.50;8.80;;;;;;;15.60;61.02;95521.41;5031723;23;20356;-82
2021/09/06 02:13:45;;;;;;;13.00;8.40;;;;;;;15.61;60.49;95523.00;4988601;28;20039;-83
2021/09/06 02:16:11;;;;;;;13.23;8.82;;;;;;;15.52;61.26;95530.47;4991154;28;20031;-83
2021/09/06 02:18:36;;;;;;;14.90;8.65;;;;;;;15.50;61.23;95532.56;4986710;28;20038;-83
2021/09/06 02:21:02;;;;;;;11.25;8.30;;;;;;;15.46;61.36;95526.22;4962387;28;20026;-84
2021/09/06 02:23:27;;;;;;;15.20;8.63;;;;;;;15.44;61.89;95533.53;4961389;28;20468;-84
2021/09/06 02:25:53;;;;;;;14.50;8.63;;;;;;;15.41;61.69;95517.50;4975889;28;20026;-84
2021/09/06 02:28:18;;;;;;;16.15;8.75;;;;;;;15.42;62.46;95530.34;4960211;28;20045;-83
2021/09/06 02:30:44;;;;;;;13.57;8.57;;;;;;;15.37;62.03;95527.69;4959802;28;20045;-85
2021/09/06 02:33:09;;;;;;;18.13;8.93;;;;;;;15.38;62.14;95528.47;4975872;28;20034;-84
2021/09/06 02:35:35;;;;;;;19.25;8.63;;;;;;;15.34;62.32;95522.94;4944347;28;20462;-84
2021/09/06 02:38:00;;;;;;;14.40;8.40;;;;;;;15.32;62.56;95527.63;4960125;28;20454;-83
2021/09/06 02:40:26;;;;;;;11.82;8.48;;;;;;;15.29;62.62;95520.22;4959842;28;20037;-84
2021/09/06 02:42:51;;;;;;;12.18;8.50;;;;;;;15.26;62.92;95525.97;4959661;28;20043;-84
2021/09/06 02:45:16;;;;;;;16.00;8.55;;;;;;;15.28;63.01;95534.38;4959887;28;20026;-84
2021/09/06 02:47:46;;;;;;;8.80;7.38;;;;;;;15.30;62.85;95532.31;4959586;28;20066;-84
2021/09/06 02:50:11;;;;;;;11.50;8.30;;;;;;;15.32;62.73;95530.25;4943440;28;20027;-84
2021/09/06 02:52:37;;;;;;;18.20;8.88;;;;;;;15.32;62.84;95527.63;4975357;28;20097;-84
2021/09/06 02:55:03;;;;;;;13.82;9.15;;;;;;;15.27;63.04;95528.34;4975695;28;20034;-85
2021/09/06 02:57:28;;;;;;;16.35;9.45;;;;;;;15.19;63.40;95523.53;4976612;28;20034;-85
2021/09/06 02:59:53;;;;;;;18.73;10.20;;;;;;;15.18;63.51;95524.56;4977399;28;20027;-84
2021/09/06 03:02:19;;;;;;;13.18;9.70;;;;;;;15.11;63.95;95526.56;4943177;28;20090;-84
2021/09/06 03:04:44;;;;;;;13.20;10.93;;;;;;;15.18;64.03;95529.03;4976592;28;20042;-84
2021/09/06 03:07:10;;;;;;;12.18;9.23;;;;;;;15.21;63.82;95536.38;4977182;28;20038;-83
2021/09/06 03:09:35;;;;;;;15.25;9.18;;;;;;;15.08;64.32;95534.91;4980046;28;20039;-84
2021/09/06 03:12:01;;;;;;;12.32;9.30;;;;;;;15.09;64.70;95540.94;4977442;28;20041;-84
2021/09/06 03:14:32;;;;;;;13.68;9.02;;;;;;;15.02;64.89;95543.75;4977585;28;20041;-83
2021/09/06 03:16:58;;;;;;;16.25;9.90;;;;;;;15.04;64.93;95533.81;4975617;28;20418;-84
2021/09/06 03:19:23;;;;;;;12.32;8.70;;;;;;;14.98;65.30;95530.34;4976782;28;20110;-84
2021/09/06 03:21:49;;;;;;;14.90;8.45;;;;;;;14.93;65.39;95530.25;4942906;28;20130;-83
2021/09/06 03:24:14;;;;;;;12.98;8.68;;;;;;;14.93;65.74;95532.88;4974415;28;20053;-84
2021/09/06 03:26:49;;;;;;;18.52;9.02;;;;;;;14.93;65.61;95527.63;4958399;28;20050;-83
2021/09/06 03:29:14;;;;;;;11.70;8.90;;;;;;;14.92;65.70;95539.16;4975457;28;20031;-84
2021/09/06 03:31:46;;;;;;;13.50;8.45;;;;;;;14.90;65.78;95533.34;4975868;28;20050;-83
2021/09/06 03:34:11;;;;;;;10.20;8.23;;;;;;;14.84;66.47;95533.53;4975003;28;20035;-85
2021/09/06 03:36:55;;;;;;;15.90;9.43;;;;;;;14.86;66.25;95545.34;4959297;28;20105;-85
2021/09/06 03:39:21;;;;;;;13.40;8.68;;;;;;;14.82;66.49;95546.09;4976121;28;20050;-83
2021/09/06 03:41:55;;;;;;;14.40;10.02;;;;;;;14.76;67.10;95553.06;4975205;28;20031;-84
2021/09/06 03:44:21;;;;;;;14.80;9.43;;;;;;;14.71;67.45;95560.84;4958411;28;20074;-84
2021/09/06 03:46:46;;;;;;;16.35;10.23;;;;;;;14.66;67.55;95563.38;4973859;23;20050;-84
2021/09/06 03:49:12;;;;;;;19.45;10.15;;;;;;;14.61;68.06;95565.91;4983653;28;20034;-86
2021/09/06 03:51:37;;;;;;;14.60;10.65;;;;;;;14.62;67.95;95570.09;4969371;28;20453;-86
2021/09/06 03:54:03;;;;;;;16.92;11.23;;;;;;;14.61;68.41;95571.13;4995480;28;20034;-85
2021/09/06 03:56:29;;;;;;;12.65;9.68;;;;;;;14.59;68.08;95578.44;5008666;28;20034;-85
2021/09/06 03:58:54;;;;;;;14.15;9.93;;;;;;;14.66;68.27;95574.66;4993339;28;20101;-85
2021/09/06 04:01:20;;;;;;;19.90;10.48;;;;;;;14.63;68.43;95584.78;4994537;28;20038;-86
2021/09/06 04:03:45;;;;;;;15.32;10.73;;;;;;;14.57;69.26;95576.06;4994876;28;20484;-85
2021/09/06 04:06:11;;;;;;;13.75;10.70;;;;;;;14.63;68.66;95579.53;4993468;28;20026;-86
2021/09/06 04:08:36;;;;;;;20.35;11.38;;;;;;;14.61;69.18;95589.47;4993755;28;20053;-86
2021/09/06 04:11:02;;;;;;;19.17;10.60;;;;;;;14.66;69.00;95584.31;4992997;28;20046;-86
2021/09/06 04:13:27;;;;;;;21.83;10.98;;;;;;;14.73;68.50;95587.56;4993545;28;20283;-86
2021/09/06 04:15:53;;;;;;;16.23;10.55;;;;;;;14.84;68.62;95585.91;4993595;28;20034;-86
2021/09/06 04:18:29;;;;;;;18.25;11.48;;;;;;;14.77;68.55;95582.63;4994742;28;20498;-85
2021/09/06 04:20:56;;;;;;;16.88;11.60;;;;;;;14.90;68.04;95582.31;4993490;28;20045;-85
2021/09/06 04:23:22;;;;;;;16.25;11.13;;;;;;;15.00;67.89;95585.88;4993671;28;20047;-85
2021/09/06 04:25:47;;;;;;;18.80;11.40;;;;;;;15.11;67.38;95591.25;5009459;28;20034;-85
2021/09/06 04:28:13;;;;;;;24.67;11.70;;;;;;;15.21;67.24;95588.78;4992997;28;20431;-85
2021/09/06 04:30:38;;;;;;;22.48;11.40;;;;;;;15.59;66.08;95596.66;4993005;28;20042;-85
2021/09/06 04:33:04;;;;;;;23.00;11.45;;;;;;;16.17;63.53;95597.84;4993193;28;20540;-85
2021/09/06 04:35:29;;;;;;;18.15;11.32;;;;;;;16.69;61.52;95602.53;4992826;28;20354;-85
2021/09/06 04:37:55;;;;;;;14.45;9.95;;;;;;;17.36;59.43;95591.41;4992718;28;20031;-85
2021/09/06 04:40:20;;;;;;;21.33;11.05;;;;;;;18.22;56.32;95609.44;4994850;28;20084;-84
2021/09/06 04:42:45;;;;;;;14.38;9.20;;;;;;;18.81;54.23;95597.66;4994830;28;20038;-85
2021/09/06 04:45:11;;;;;;;13.40;9.60;;;;;;;19.61;51.86;95597.81;4993447;28;20113;-84
2021/09/06 04:47:37;;;;;;;18.05;9.45;;;;;;;20.33;49.37;95613.03;4994728;28;20645;-85
2021/09/06 04:50:02;;;;;;;11.63;8.88;;;;;;;20.75;48.02;95601.16;4994284;28;20046;-85
2021/09/06 04:52:28;;;;;;;16.90;9.45;;;;;;;21.18;46.89;95609.28;5011514;28;20078;-84
2021/09/06 04:54:54;;;;;;;19.08;8.93;;;;;;;22.05;45.08;95596.72;4994360;28;20030;-85
2021/09/06 04:57:19;;;;;;;13.38;8.70;;;;;;;22.93;42.33;95605.00;4993541;28;20027;-85
2021/09/06 04:59:45;;;;;;;14.65;8.57;;;;;;;23.16;41.68;95614.72;4993954;28;20039;-85
2021/09/06 05:02:10;;;;;;;20.98;8.30;;;;;;;23.36;41.02;95609.03;4994861;28;20042;-85
2021/09/06 05:04:36;;;;;;;15.88;8.07;;;;;;;24.31;38.68;95614.66;4998995;28;20053;-86
2021/09/06 05:07:01;;;;;;;10.82;7.85;;;;;;;25.10;37.24;95616.88;5008701;28;20030;-84
2021/09/06 05:09:27;;;;;;;13.68;8.10;;;;;;;26.20;34.95;95611.53;5009102;28;20049;-84
2021/09/06 05:11:53;;;;;;;15.82;7.85;;;;;;;26.87;34.00;95619.13;5009303;28;20038;-83
2021/09/06 05:14:18;;;;;;;10.52;7.10;;;;;;;27.15;33.14;95608.09;4990985;28;20069;-82
2021/09/06 05:16:44;;;;;;;15.30;8.02;;;;;;;27.81;32.34;95613.88;5007008;28;20026;-83
2021/09/06 05:19:09;;;;;;;11.70;7.75;;;;;;;27.56;32.33;95607.53;5005260;28;20030;-84
2021/09/06 05:21:35;;;;;;;16.13;7.35;;;;;;;28.68;30.29;95614.94;4995829;28;20042;-84
2021/09/06 05:24:00;;;;;;;10.60;6.75;;;;;;;29.45;29.13;95622.56;4993049;28;20038;-84
2021/09/06 05:26:26;;;;;;;10.57;6.65;;;;;;;29.86;28.61;95625.09;4995829;28;20038;-84
2021/09/06 05:28:51;;;;;;;8.63;7.00;;;;;;;30.10;27.79;95621.69;4994201;28;20045;-84
2021/09/06 05:31:18;;;;;;;8.38;7.47;;;;;;;29.67;28.98;95616.06;4995106;28;20077;-82
2021/09/06 05:33:43;;;;;;;13.07;7.60;;;;;;;30.27;27.73;95623.34;4995385;28;20034;-83
2021/09/06 05:36:12;;;;;;;14.98;7.10;;;;;;;30.56;27.84;95626.84;4994838;28;20116;-84
2021/09/06 05:38:38;;;;;;;10.07;7.18;;;;;;;31.11;26.78;95614.59;4981727;28;20069;-83
2021/09/06 05:41:10;;;;;;;19.75;7.30;;;;;;;31.05;26.66;95614.84;5010629;28;20026;-84
2021/09/06 05:43:35;;;;;;;15.73;6.97;;;;;;;30.36;27.57;95621.28;4994268;28;20113;-83
2021/09/06 05:46:48;;;;;;;10.80;6.97;;;;;;;29.70;28.70;95621.53;4991251;28;20432;-82
2021/09/06 05:49:20;;;;;;;21.50;7.25;;;;;;;29.72;29.09;95616.59;4993657;28;20113;-82
2021/09/06 05:51:45;;;;;;;15.00;6.82;;;;;;;29.67;28.89;95627.56;4994594;28;20117;-84
2021/09/06 05:54:11;;;;;;;10.43;6.63;;;;;;;29.10;29.85;95641.69;4994011;28;20038;-81
2021/09/06 05:56:36;;;;;;;10.88;6.75;;;;;;;28.89;30.50;95624.88;4992517;28;20034;-82
2021/09/06 05:59:02;;;;;;;10.93;6.72;;;;;;;28.58;30.55;95626.03;4992629;28;20038;-81
2021/09/06 06:01:27;;;;;;;8.18;6.82;;;;;;;28.43;31.21;95629.28;4992849;28;20031;-84
2021/09/06 06:03:53;;;;;;;12.00;7.25;;;;;;;27.70;31.97;95628.72;4992552;28;20038;-84
2021/09/06 06:06:18;;;;;;;12.77;7.78;;;;;;;27.64;32.61;95624.63;4990817;28;20056;-81
2021/09/06 06:09:06;;;;;;;12.95;7.47;;;;;;;27.62;32.80;95632.16;4994053;28;20030;-84
2021/09/06 06:11:32;;;;;;;10.32;6.75;;;;;;;27.43;33.01;95641.34;4958318;28;20233;-84
2021/09/06 06:13:57;;;;;;;16.70;8.07;;;;;;;26.79;33.89;95633.25;4975573;28;20065;-83
2021/09/06 06:16:23;;;;;;;13.38;7.85;;;;;;;25.42;36.64;95653.06;4972181;28;20047;-83
2021/09/06 06:18:49;;;;;;;13.30;9.18;;;;;;;24.37;38.61;95632.06;4939005;28;20034;-83
2021/09/06 06:21:33;;;;;;;16.17;7.63;;;;;;;24.54;39.02;95628.78;4940311;28;20051;-83
2021/09/06 06:23:59;;;;;;;13.98;8.38;;;;;;;24.60;38.58;95634.78;4971712;28;20043;-84
2021/09/06 06:26:24;;;;;;;13.63;8.07;;;;;;;24.51;38.97;95634.69;4950754;28;20052;-84
2021/09/06 06:28:50;;;;;;;11.48;8.13;;;;;;;24.33;39.17;95641.72;4973095;28;20035;-85
2021/09/06 06:31:18;;;;;;;13.20;7.90;;;;;;;23.94;40.22;95640.38;4955991;28;127211;-84
2021/09/06 06:33:44;;;;;;;12.38;8.25;;;;;;;23.89;40.29;95632.50;4927679;29;20547;-85
2021/09/06 06:36:09;;;;;;;13.38;8.10;;;;;;;23.60;40.95;95643.44;4944967;23;20120;-85
2021/09/06 06:38:35;;;;;;;16.75;8.82;;;;;;;23.39;41.17;95638.72;4921615;29;20044;-86
2021/09/06 06:41:01;;;;;;;9.95;8.63;;;;;;;23.44;41.36;95642.09;4902511;29;20099;-84
2021/09/06 06:43:29;;;;;;;12.15;8.38;;;;;;;23.71;40.58;95640.56;4888935;29;20063;-84
2021/09/06 06:45:54;;;;;;;12.55;8.45;;;;;;;23.55;41.20;95643.47;4888819;29;20032;-85
2021/09/06 06:48:20;;;;;;;15.50;8.07;;;;;;;23.62;40.50;95641.25;4905458;29;20032;-85
2021/09/06 06:50:45;;;;;;;13.10;8.30;;;;;;;23.83;40.82;95644.31;4924324;29;20039;-85
2021/09/06 06:53:11;;;;;;;13.77;8.18;;;;;;;23.44;41.07;95654.56;4922312;29;20039;-86
2021/09/06 06:55:37;;;;;;;13.25;9.02;;;;;;;23.24;41.40;95651.16;4920792;29;20099;-85
2021/09/06 06:58:02;;;;;;;14.45;7.88;;;;;;;23.35;41.99;95655.25;4921431;29;20040;-86
2021/09/06 07:00:28;;;;;;;15.50;8.02;;;;;;;23.62;41.20;95669.69;4902925;29;20127;-86
2021/09/06 07:02:53;;;;;;;15.57;8.18;;;;;;;23.17;41.54;95673.88;4902328;29;20035;-85
2021/09/06 07:05:20;;;;;;;15.23;8.90;;;;;;;22.79;42.68;95665.16;4918372;29;20043;-84
2021/09/06 07:07:45;;;;;;;12.05;8.07;;;;;;;23.08;42.36;95665.75;4884232;29;20079;-84
2021/09/06 07:10:11;;;;;;;13.52;7.88;;;;;;;23.24;41.91;95668.97;4917814;29;20068;-85
2021/09/06 07:12:37;;;;;;;14.90;8.05;;;;;;;23.23;41.63;95667.38;4921810;29;20051;-84
2021/09/06 07:15:07;;;;;;;16.48;8.32;;;;;;;23.41;41.24;95674.50;4918650;29;20115;-86
2021/09/06 07:17:34;;;;;;;19.80;7.88;;;;;;;23.32;41.78;95671.75;4898657;29;20043;-83
2021/09/06 07:20:00;;;;;;;11.43;8.27;;;;;;;23.50;41.22;95680.72;4903024;29;20036;-83
2021/09/06 07:22:26;;;;;;;11.57;7.97;;;;;;;23.45;41.29;95674.72;4886968;29;20419;-88
2021/09/06 07:24:54;;;;;;;15.73;7.30;;;;;;;23.55;40.99;95679.84;4887773;29;20062;-83
2021/09/06 07:27:21;;;;;;;10.13;6.78;;;;;;;23.45;41.26;95693.31;4917712;29;20024;-84
2021/09/06 07:29:46;;;;;;;9.20;7.47;;;;;;;23.64;40.73;95680.78;4918728;29;20127;-86
2021/09/06 07:32:11;;;;;;;20.15;8.18;;;;;;;23.35;41.63;95684.44;4903175;29;20055;-79
2021/09/06 07:34:37;;;;;;;20.27;9.02;;;;;;;23.38;41.82;95695.53;4919006;29;20040;-82
2021/09/06 07:37:06;;;;;;;16.48;8.15;;;;;;;23.27;41.55;95695.72;4917601;29;20039;-78
2021/09/06 07:39:32;;;;;;;19.17;8.73;;;;;;;23.15;42.03;95692.72;4900479;29;20040;-79
2021/09/06 07:41:58;;;;;;;10.68;7.53;;;;;;;23.10;42.06;95689.34;4901719;29;20154;-78
2021/09/06 07:44:24;;;;;;;13.15;7.75;;;;;;;22.94;42.97;95686.13;4919905;29;20416;-79
2021/09/06 07:46:50;;;;;;;9.80;7.80;;;;;;;23.19;42.32;95693.72;4902605;29;20032;-79
2021/09/06 07:49:16;;;;;;;10.02;7.88;;;;;;;23.49;41.47;95689.00;4918965;29;20036;-78
2021/09/06 07:51:42;;;;;;;12.63;7.72;;;;;;;23.69;41.38;95686.00;4917415;29;20047;-79
2021/09/06 07:54:07;;;;;;;18.08;8.35;;;;;;;23.86;40.63;95696.06;4919363;29;20031;-78
2021/09/06 07:56:33;;;;;;;14.48;7.90;;;;;;;23.63;41.09;95687.19;4917319;29;20047;-78
2021/09/06 07:58:58;;;;;;;21.83;8.25;;;;;;;23.79;40.95;95685.03;4918402;29;20454;-78
2021/09/06 08:01:24;;;;;;;15.15;8.30;;;;;;;24.04;40.43;95689.06;4918041;29;20032;-78
2021/09/06 08:03:49;;;;;;;9.10;6.95;;;;;;;24.17;40.02;95680.31;4920121;29;20523;-78
2021/09/06 08:06:15;;;;;;;11.75;7.07;;;;;;;24.17;39.35;95682.97;4894213;29;20036;-78
2021/09/06 08:08:40;;;;;;;12.60;7.72;;;;;;;24.04;39.86;95683.75;4917616;29;20040;-78
2021/09/06 08:11:06;;;;;;;10.50;7.13;;;;;;;24.25;39.52;95682.28;4917482;29;20032;-78
2021/09/06 08:13:31;;;;;;;13.65;7.03;;;;;;;24.42;38.79;95682.50;4896442;29;20111;-77
2021/09/06 08:15:56;;;;;;;12.98;7.32;;;;;;;24.52;38.32;95682.25;4931226;23;20044;-77
2021/09/06 08:18:22;;;;;;;17.63;6.85;;;;;;;24.70;37.63;95679.75;4932325;29;20051;-77
2021/09/06 08:20:47;;;;;;;12.93;6.75;;;;;;;24.58;37.49;95680.31;4932255;29;20028;-77
2021/09/06 08:23:13;;;;;;;10.60;6.80;;;;;;;24.62;36.94;95680.47;4932189;29;20028;-77
2021/09/06 08:25:39;;;;;;;12.48;6.05;;;;;;;24.30;37.48;95679.56;4930802;29;20032;-78
2021/09/06 08:28:05;;;;;;;8.38;6.57;;;;;;;24.13;37.29;95688.09;4899492;29;20534;-78
2021/09/06 08:30:36;;;;;;;14.38;5.90;;;;;;;23.92;36.48;95690.38;4930722;29;20439;-78
2021/09/06 08:33:02;;;;;;;6.40;5.80;;;;;;;23.94;37.00;95682.88;4931382;29;21108;-78
2021/09/06 08:35:28;;;;;;;9.32;6.47;;;;;;;23.82;37.96;95684.44;4930669;29;20042;-78
2021/09/06 08:37:54;;;;;;;11.75;6.15;;;;;;;23.68;38.47;95686.28;4931693;29;20031;-78
2021/09/06 08:40:19;;;;;;;10.30;7.38;;;;;;;24.03;37.99;95679.53;4932914;29;20143;-77
2021/09/06 08:42:44;;;;;;;15.35;6.30;;;;;;;23.77;37.46;95689.88;4931942;29;20042;-77
2021/09/06 08:45:33;;;;;;;7.97;6.65;;;;;;;23.75;38.16;95679.50;4931093;29;20028;-78
2021/09/06 08:47:58;;;;;;;7.63;6.47;;;;;;;23.51;38.93;95677.00;4931445;29;20504;-77
2021/09/06 08:50:23;;;;;;;9.45;7.10;;;;;;;23.13;39.29;95675.53;4932040;29;20064;-77
2021/09/06 08:52:49;;;;;;;8.90;5.85;;;;;;;23.27;38.96;95676.38;4930705;29;20035;-77
2021/09/06 08:55:14;;;;;;;11.07;6.00;;;;;;;23.57;37.64;95678.50;4930692;29;20492;-77
2021/09/06 08:57:40;;;;;;;12.63;6.47;;;;;;;23.78;36.59;95673.63;4932261;29;20032;-77
2021/09/06 09:00:05;;;;;;;17.48;5.90;;;;;;;23.69;36.18;95687.88;4922558;29;20052;-78
2021/09/06 09:02:33;;;;;;;12.30;5.80;;;;;;;23.43;36.52;95677.69;4913461;29;20118;-77
2021/09/06 09:05:09;;;;;;;14.85;6.88;;;;;;;23.25;37.48;95676.63;4931388;29;20038;-77
2021/09/06 09:07:34;;;;;;;14.93;6.43;;;;;;;23.12;38.62;95672.09;4931131;29;20067;-77
2021/09/06 09:10:00;;;;;;;9.88;6.45;;;;;;;23.13;38.77;95678.97;4931182;29;20420;-77
2021/09/06 09:12:29;;;;;;;11.07;6.65;;;;;;;23.36;38.42;95683.34;4914312;29;20129;-77
2021/09/06 09:14:56;;;;;;;8.27;6.00;;;;;;;23.57;37.14;95678.50;4930851;29;20111;-77
2021/09/06 09:17:22;;;;;;;11.68;6.28;;;;;;;23.99;37.45;95675.91;4931761;29;20094;-77
2021/09/06 09:19:48;;;;;;;10.07;7.10;;;;;;;23.92;38.08;95681.63;4898477;29;20040;-77
2021/09/06 09:22:28;;;;;;;13.63;7.05;;;;;;;23.80;38.47;95684.75;4929766;29;20118;-77
2021/09/06 09:25:00;;;;;;;11.23;6.65;;;;;;;22.81;39.36;95681.56;4930585;29;20416;-77
2021/09/06 09:27:42;;;;;;;8.38;6.65;;;;;;;22.37;39.21;95687.97;4931004;29;20039;-77
2021/09/06 09:30:22;;;;;;;11.20;7.88;;;;;;;22.12;41.82;95689.06;4898197;29;20051;-77
2021/09/06 09:32:47;;;;;;;7.70;6.90;;;;;;;22.09;42.15;95679.03;4922217;29;20039;-77
2021/09/06 09:35:13;;;;;;;10.57;7.88;;;;;;;21.56;43.41;95681.69;4929580;29;20079;-77
2021/09/06 09:37:38;;;;;;;17.38;7.53;;;;;;;21.43;43.86;95683.13;4929959;29;20046;-76
2021/09/06 09:40:07;;;;;;;13.95;7.32;;;;;;;21.31;43.61;95689.84;4922215;29;20047;-77
2021/09/06 09:42:33;;;;;;;11.85;7.53;;;;;;;21.27;43.95;95692.28;4931080;29;20039;-77
2021/09/06 09:44:59;;;;;;;10.55;7.25;;;;;;;21.06;44.33;95686.34;4930999;29;20035;-77
2021/09/06 09:47:48;;;;;;;13.10;7.72;;;;;;;20.93;45.00;95685.09;4930770;29;20035;-77
2021/09/06 09:50:14;;;;;;;9.13;6.82;;;;;;;20.88;45.35;95685.13;4932827;29;20107;-77
2021/09/06 09:52:39;;;;;;;20.92;7.85;;;;;;;20.86;45.34;95682.00;4925362;29;20035;-79
2021/09/06 09:55:05;;;;;;;8.85;7.20;;;;;;;21.02;45.12;95690.59;4922345;29;20036;-82
2021/09/06 09:57:30;;;;;;;16.48;7.80;;;;;;;21.19;44.50;95685.69;4902120;29;20131;-78
2021/09/06 09:59:56;;;;;;;13.25;7.55;;;;;;;21.28;43.79;95677.97;4938982;29;20040;-79
2021/09/06 10:02:26;;;;;;;14.50;7.97;;;;;;;21.18;43.93;95683.34;4940321;29;20419;-78
2021/09/06 10:04:54;;;;;;;10.77;7.32;;;;;;;21.53;43.64;95690.19;4931832;29;20584;-78
2021/09/06 10:07:20;;;;;;;10.43;6.10;;;;;;;21.87;41.84;95685.63;4941867;29;20039;-78
2021/09/06 10:09:46;;;;;;;12.50;6.78;;;;;;;22.00;40.96;95678.84;4940790;29;20510;-78
2021/09/06 10:12:28;;;;;;;9.15;7.18;;;;;;;21.97;40.65;95679.44;4934061;29;20035;-80
2021/09/06 10:14:56;;;;;;;11.15;6.63;;;;;;;21.80;39.86;95685.16;4941151;29;20036;-78
2021/09/06 10:17:35;;;;;;;15.27;6.65;;;;;;;21.71;40.65;95675.47;4942666;29;20039;-78
2021/09/06 10:20:11;;;;;;;7.10;6.40;;;;;;;21.71;40.32;95675.47;4927232;29;20039;-78
2021/09/06 10:22:37;;;;;;;14.82;7.30;;;;;;;21.61;40.94;95692.22;4941951;29;20479;-79
2021/09/06 10:25:12;;;;;;;18.02;7.13;;;;;;;21.55;41.13;95682.78;4939740;29;20047;-78
2021/09/06 10:27:38;;;;;;;15.60;6.70;;;;;;;21.58;41.50;95682.19;4940692;29;20028;-82
2021/09/06 10:30:11;;;;;;;13.40;6.88;;;;;;;21.57;41.19;95684.06;4907059;29;20032;-78
2021/09/06 10:32:54;;;;;;;18.50;6.47;;;;;;;21.58;41.05;95674.25;4906485;29;20047;-82
2021/09/06 10:35:23;;;;;;;14.32;6.72;;;;;;;21.67;41.06;95669.16;4951221;29;20043;-78
2021/09/06 10:38:11;;;;;;;10.80;6.22;;;;;;;21.82;40.56;95676.94;4938482;29;20039;-78
2021/09/06 10:40:38;;;;;;;14.30;6.78;;;;;;;21.92;40.25;95676.81;4911367;29;20568;-78
2021/09/06 10:43:20;;;;;;;11.45;5.97;;;;;;;21.99;39.19;95663.25;4903646;29;20074;-78
2021/09/06 10:45:47;;;;;;;7.15;5.90;;;;;;;22.21;38.63;95663.53;4925253;29;20035;-78
2021/09/06 10:48:20;;;;;;;16.40;5.93;;;;;;;22.14;38.41;95658.59;4935542;29;20040;-78
2021/09/06 10:50:46;;;;;;;15.82;6.30;;;;;;;22.03;38.88;95664.25;4936424;29;20035;-78
2021/09/06 10:53:14;;;;;;;10.63;6.20;;;;;;;21.75;39.74;95669.31;4935136;29;20428;-78
2021/09/06 10:55:40;;;;;;;12.63;5.97;;;;;;;21.70;39.91;95668.59;4932666;29;20043;-77
2021/09/06 10:58:10;;;;;;;13.45;5.97;;;;;;;21.40;40.32;95675.75;4932349;29;20036;-78
2021/09/06 11:00:35;;;;;;;10.32;6.80;;;;;;;21.22;40.28;95665.84;4901041;29;20039;-78
2021/09/06 11:03:03;;;;;;;14.13;6.32;;;;;;;21.10;40.58;95670.69;4933397;29;20683;-77
2021/09/06 11:05:29;;;;;;;11.27;6.13;;;;;;;20.99;41.13;95670.00;4924984;29;20486;-77
2021/09/06 11:08:04;;;;;;;13.43;6.53;;;;;;;20.93;41.74;95661.31;4932367;29;20492;-77
2021/09/06 11:10:32;;;;;;;11.90;6.35;;;;;;;21.08;41.58;95662.25;4933460;29;20100;-78
2021/09/06 11:12:59;;;;;;;15.80;6.82;;;;;;;20.93;41.91;95663.94;4948262;28;20038;-77
2021/09/06 11:15:29;;;;;;;13.52;6.72;;;;;;;21.02;41.54;95663.38;4900051;29;20423;-77
2021/09/06 11:18:04;;;;;;;12.98;6.32;;;;;;;20.93;42.22;95666.59;4933519;29;20046;-78
2021/09/06 11:20:32;;;;;;;14.40;6.13;;;;;;;21.16;41.73;95680.97;4934715;29;20036;-78
2021/09/06 11:23:08;;;;;;;9.10;5.55;;;;;;;21.18;41.16;95675.41;4943938;29;20059;-78
2021/09/06 11:25:34;;;;;;;7.97;6.15;;;;;;;21.34;40.86;95665.50;4942077;29;20039;-78
2021/09/06 11:28:18;;;;;;;10.68;5.95;;;;;;;21.31;41.16;95666.84;4935144;29;20028;-78
2021/09/06 11:30:44;;;;;;;10.18;6.03;;;;;;;21.40;41.52;95672.31;4934326;29;20082;-78